createdAt,value
2022-09-18T00:01:01.971Z,86.22
2022-09-18T00:03:28.896Z,85.64
2022-09-18T00:05:55.537Z,85.25
2022-09-18T00:08:22.343Z,85.68
2022-09-18T00:10:48.947Z,85.74
2022-09-18T00:13:15.876Z,85.90
2022-09-18T00:15:42.584Z,85.53
2022-09-18T00:18:09.667Z,85.51
2022-09-18T00:20:37.807Z,85.33
2022-09-18T00:23:04.807Z,85.82
2022-09-18T00:25:32.296Z,85.56
2022-09-18T00:27:59.283Z,85.00
2022-09-18T00:30:25.892Z,85.17
2022-09-18T00:32:52.520Z,84.87
2022-09-18T00:35:19.140Z,85.12
2022-09-18T00:37:45.779Z,85.02
2022-09-18T00:40:12.460Z,85.11
2022-09-18T00:42:39.106Z,84.65
2022-09-18T00:45:06.415Z,84.82
2022-09-18T00:47:38.573Z,84.82
2022-09-18T00:50:13.175Z,84.83
2022-09-18T00:52:48.977Z,84.62
2022-09-18T00:55:17.448Z,84.87
2022-09-18T00:57:50.881Z,84.59
2022-09-18T01:00:17.648Z,84.39
2022-09-18T01:02:47.571Z,84.50
2022-09-18T01:05:19.137Z,83.94
2022-09-18T01:08:18.223Z,84.70
2022-09-18T01:11:05.226Z,84.11
2022-09-18T01:13:52.662Z,83.86
2022-09-18T01:16:38.798Z,84.24
2022-09-18T01:19:17.897Z,84.75
2022-09-18T01:22:02.778Z,83.84
2022-09-18T01:24:45.221Z,84.25
2022-09-18T01:27:41.183Z,83.83
2022-09-18T01:30:11.157Z,84.14
2022-09-18T01:32:47.558Z,83.71
2022-09-18T01:35:40.993Z,84.12
2022-09-18T01:38:14.270Z,83.98
2022-09-18T01:40:46.863Z,83.82
2022-09-18T01:43:17.019Z,84.00
2022-09-18T01:45:47.561Z,84.35
2022-09-18T01:48:25.079Z,83.92
2022-09-18T01:50:56.390Z,84.03
2022-09-18T01:53:30.394Z,84.56
2022-09-18T01:56:01.709Z,84.00
2022-09-18T01:58:29.704Z,84.09
2022-09-18T02:01:00.504Z,83.84
2022-09-18T02:03:33.097Z,84.31
2022-09-18T02:06:06.750Z,84.40
2022-09-18T02:08:50.524Z,84.39
2022-09-18T02:11:19.086Z,84.53
2022-09-18T02:13:58.936Z,84.24
2022-09-18T02:16:48.743Z,84.36
2022-09-18T02:19:25.075Z,84.64
2022-09-18T02:21:54.415Z,84.41
2022-09-18T02:24:28.541Z,84.54
2022-09-18T02:26:56.964Z,83.99
2022-09-18T02:29:25.287Z,84.44
2022-09-18T02:31:52.502Z,84.06
2022-09-18T02:34:20.090Z,83.89
2022-09-18T02:37:11.626Z,84.03
2022-09-18T02:39:45.536Z,84.19
2022-09-18T02:42:30.721Z,83.72
2022-09-18T02:45:22.678Z,83.89
2022-09-18T02:48:09.445Z,83.68
2022-09-18T02:50:53.613Z,83.90
2022-09-18T02:53:31.490Z,84.29
2022-09-18T02:56:04.211Z,83.24
2022-09-18T02:58:40.475Z,83.77
2022-09-18T03:01:08.992Z,83.86
2022-09-18T03:03:38.795Z,83.71
2022-09-18T03:06:08.559Z,84.06
2022-09-18T03:08:35.331Z,83.44
2022-09-18T03:11:01.963Z,83.77
2022-09-18T03:13:28.591Z,83.75
2022-09-18T03:15:56.083Z,84.34
2022-09-18T03:18:23.117Z,84.28
2022-09-18T03:20:49.717Z,84.72
2022-09-18T03:23:16.338Z,84.41
2022-09-18T03:25:42.931Z,84.30
2022-09-18T03:28:09.598Z,84.59
2022-09-18T03:30:36.756Z,83.94
2022-09-18T03:33:03.571Z,84.05
2022-09-18T03:35:30.277Z,83.66
2022-09-18T03:37:56.886Z,83.90
2022-09-18T03:40:23.545Z,83.68
2022-09-18T03:42:50.878Z,83.65
2022-09-18T03:45:17.917Z,83.99
2022-09-18T03:47:44.832Z,84.30
2022-09-18T03:50:11.446Z,83.60
2022-09-18T03:52:38.051Z,83.86
2022-09-18T03:55:04.982Z,84.09
2022-09-18T03:57:31.565Z,83.89
2022-09-18T03:59:58.343Z,84.09
2022-09-18T04:02:24.959Z,84.01
2022-09-18T04:04:51.959Z,83.82
2022-09-18T04:07:18.526Z,83.72
2022-09-18T04:09:45.247Z,83.80
2022-09-18T04:12:11.974Z,83.94
2022-09-18T04:14:38.725Z,84.05
2022-09-18T04:17:05.362Z,83.98
2022-09-18T04:19:31.945Z,83.47
2022-09-18T04:21:58.579Z,83.95
2022-09-18T04:24:25.158Z,83.79
2022-09-18T04:26:51.757Z,83.52
2022-09-18T04:29:18.379Z,83.91
2022-09-18T04:31:44.986Z,84.11
2022-09-18T04:34:11.623Z,83.86
2022-09-18T04:36:38.268Z,83.73
2022-09-18T04:39:04.853Z,84.35
2022-09-18T04:41:31.455Z,83.70
2022-09-18T04:44:00.394Z,83.67
2022-09-18T04:46:27.025Z,84.19
2022-09-18T04:48:54.206Z,83.71
2022-09-18T04:51:20.821Z,83.77
2022-09-18T04:53:47.415Z,83.34
2022-09-18T04:56:14.003Z,83.53
2022-09-18T04:58:40.594Z,83.57
2022-09-18T05:01:07.358Z,84.39
2022-09-18T05:03:34.247Z,83.50
2022-09-18T05:06:00.825Z,83.93
2022-09-18T05:08:28.903Z,83.99
2022-09-18T05:10:55.950Z,84.35
2022-09-18T05:13:22.631Z,84.08
2022-09-18T05:15:49.255Z,83.83
2022-09-18T05:18:15.898Z,84.03
2022-09-18T05:20:42.478Z,84.27
2022-09-18T05:23:09.095Z,83.99
2022-09-18T05:25:35.751Z,83.84
2022-09-18T05:28:03.830Z,84.08
2022-09-18T05:30:31.563Z,84.37
2022-09-18T05:33:00.783Z,84.46
2022-09-18T05:35:29.674Z,84.26
2022-09-18T05:37:57.224Z,84.69
2022-09-18T05:40:26.316Z,84.29
2022-09-18T05:42:53.260Z,83.85
2022-09-18T05:45:20.949Z,84.36
2022-09-18T05:47:59.374Z,84.37
2022-09-18T05:50:28.393Z,84.26
2022-09-18T05:52:58.942Z,84.76
2022-09-18T05:55:25.816Z,85.01
2022-09-18T05:57:54.049Z,84.82
2022-09-18T06:00:20.658Z,84.51
2022-09-18T06:02:54.503Z,84.74
2022-09-18T06:05:21.386Z,84.47
2022-09-18T06:07:48.078Z,84.14
2022-09-18T06:10:15.075Z,84.42
2022-09-18T06:12:41.712Z,84.40
2022-09-18T06:15:09.142Z,84.20
2022-09-18T06:17:35.717Z,84.87
2022-09-18T06:20:03.417Z,84.47
2022-09-18T06:22:31.700Z,84.98
2022-09-18T06:24:58.461Z,84.53
2022-09-18T06:27:25.071Z,84.81
2022-09-18T06:29:52.162Z,84.69
2022-09-18T06:32:20.315Z,85.31
2022-09-18T06:34:47.848Z,85.64
2022-09-18T06:37:15.195Z,85.35
2022-09-18T06:39:42.076Z,85.56
2022-09-18T06:42:08.775Z,85.44
2022-09-18T06:44:35.354Z,86.06
2022-09-18T06:47:02.359Z,85.68
2022-09-18T06:49:28.956Z,85.82
2022-09-18T06:51:55.770Z,85.90
2022-09-18T06:54:22.344Z,86.36
2022-09-18T06:56:49.449Z,86.74
2022-09-18T06:59:16.036Z,86.61
2022-09-18T07:01:42.706Z,86.50
2022-09-18T07:04:09.350Z,86.19
2022-09-18T07:06:35.922Z,86.02
2022-09-18T07:09:02.785Z,86.79
2022-09-18T07:11:29.452Z,86.35
2022-09-18T07:13:56.054Z,87.22
2022-09-18T07:16:22.787Z,86.96
2022-09-18T07:18:49.475Z,86.98
2022-09-18T07:21:16.043Z,86.84
2022-09-18T07:23:42.957Z,86.77
2022-09-18T07:26:09.800Z,87.02
2022-09-18T07:28:37.118Z,86.78
2022-09-18T07:31:05.346Z,86.68
2022-09-18T07:33:32.767Z,86.91
2022-09-18T07:36:00.862Z,86.93
2022-09-18T07:38:27.553Z,86.72
2022-09-18T07:40:54.540Z,86.77
2022-09-18T07:43:21.168Z,86.64
2022-09-18T07:45:47.758Z,86.67
2022-09-18T07:48:14.584Z,86.04
2022-09-18T07:50:41.315Z,86.01
2022-09-18T07:53:09.046Z,86.10
2022-09-18T07:55:36.862Z,86.25
2022-09-18T07:58:06.539Z,85.88
2022-09-18T08:00:35.970Z,86.11
2022-09-18T08:03:07.964Z,85.99
2022-09-18T08:05:35.127Z,86.04
2022-09-18T08:08:05.964Z,85.79
2022-09-18T08:10:34.348Z,86.17
2022-09-18T08:13:02.704Z,85.73
2022-09-18T08:15:34.109Z,85.94
2022-09-18T08:18:01.239Z,85.96
2022-09-18T08:20:28.010Z,86.09
2022-09-18T08:22:54.667Z,86.09
2022-09-18T08:25:21.520Z,86.38
2022-09-18T08:27:48.137Z,86.09
2022-09-18T08:30:17.534Z,86.10
2022-09-18T08:32:44.184Z,86.13
2022-09-18T08:35:11.235Z,86.31
2022-09-18T08:37:38.108Z,86.32
2022-09-18T08:40:05.658Z,86.45
2022-09-18T08:42:54.022Z,86.34
2022-09-18T08:45:52.745Z,85.96
2022-09-18T08:48:25.414Z,85.76
2022-09-18T08:51:01.291Z,85.92
2022-09-18T08:53:42.401Z,85.25
2022-09-18T08:56:18.830Z,84.74
2022-09-18T08:59:01.006Z,84.75
2022-09-18T09:01:42.774Z,84.92
2022-09-18T09:04:25.176Z,85.17
2022-09-18T09:07:28.914Z,84.92
2022-09-18T09:10:24.186Z,85.68
2022-09-18T09:13:18.882Z,85.89
2022-09-18T09:16:01.891Z,85.09
2022-09-18T09:19:01.863Z,85.10
2022-09-18T09:21:44.470Z,84.95
2022-09-18T09:24:35.791Z,84.41
2022-09-18T09:27:16.791Z,83.40
2022-09-18T09:29:45.866Z,83.62
2022-09-18T09:32:25.813Z,82.76
2022-09-18T09:35:05.092Z,81.83
2022-09-18T09:37:45.323Z,81.87
2022-09-18T09:40:28.587Z,81.59
2022-09-18T09:43:04.912Z,81.24
2022-09-18T09:45:52.001Z,80.85
2022-09-18T09:48:34.008Z,80.79
2022-09-18T09:51:17.579Z,80.35
2022-09-18T09:53:44.972Z,79.84
2022-09-18T09:56:17.582Z,78.36
2022-09-18T09:58:47.031Z,77.97
2022-09-18T10:01:22.358Z,78.15
2022-09-18T10:04:01.273Z,78.18
2022-09-18T10:06:38.023Z,78.23
2022-09-18T10:09:16.710Z,77.70
2022-09-18T10:11:57.254Z,77.34
2022-09-18T10:14:27.986Z,77.18
2022-09-18T10:16:57.359Z,75.87
2022-09-18T10:19:29.599Z,75.74
2022-09-18T10:21:56.630Z,75.82
2022-09-18T10:24:33.962Z,75.34
2022-09-18T10:27:06.226Z,74.54
2022-09-18T10:29:35.902Z,74.35
2022-09-18T10:32:04.494Z,72.81
2022-09-18T10:34:36.968Z,73.04
2022-09-18T10:37:04.041Z,73.48
2022-09-18T10:39:33.659Z,73.12
2022-09-18T10:42:05.949Z,73.01
2022-09-18T10:44:37.708Z,72.77
2022-09-18T10:47:19.748Z,73.14
2022-09-18T10:49:59.275Z,73.32
2022-09-18T10:52:43.307Z,73.37
2022-09-18T10:55:18.205Z,72.64
2022-09-18T10:57:55.502Z,72.04
2022-09-18T11:00:22.168Z,72.05
2022-09-18T11:02:55.938Z,72.62
2022-09-18T11:05:46.779Z,71.83
2022-09-18T11:08:16.269Z,71.15
2022-09-18T11:10:48.693Z,70.88
2022-09-18T11:13:25.473Z,71.09
2022-09-18T11:15:56.240Z,71.24
2022-09-18T11:18:25.936Z,70.95
2022-09-18T11:20:55.596Z,70.52
2022-09-18T11:23:27.858Z,70.30
2022-09-18T11:26:16.218Z,68.48
2022-09-18T11:28:43.511Z,68.81
2022-09-18T11:31:19.522Z,68.56
2022-09-18T11:33:54.075Z,68.47
2022-09-18T11:36:27.449Z,68.72
2022-09-18T11:38:56.861Z,68.17
2022-09-18T11:41:26.392Z,68.03
2022-09-18T11:44:01.889Z,68.01
2022-09-18T11:47:02.285Z,68.02
2022-09-18T11:49:48.724Z,67.92
2022-09-18T11:52:33.089Z,67.33
2022-09-18T11:55:09.332Z,67.26
2022-09-18T11:57:39.315Z,67.29
2022-09-18T12:00:15.017Z,67.29
2022-09-18T12:02:56.971Z,67.28
2022-09-18T12:05:30.608Z,66.89
2022-09-18T12:08:32.327Z,66.86
2022-09-18T12:11:35.844Z,66.65
2022-09-18T12:14:08.130Z,66.54
2022-09-18T12:17:00.278Z,66.19
2022-09-18T12:19:49.384Z,66.34
2022-09-18T12:22:21.686Z,66.20
2022-09-18T12:24:49.446Z,65.79
2022-09-18T12:28:00.291Z,64.84
2022-09-18T12:30:40.954Z,64.56
2022-09-18T12:33:22.031Z,65.09
2022-09-18T12:36:03.922Z,64.73
2022-09-18T12:38:59.192Z,64.75
2022-09-18T12:41:53.299Z,65.12
2022-09-18T12:44:42.740Z,65.06
2022-09-18T12:47:24.198Z,64.73
2022-09-18T12:50:16.667Z,64.78
2022-09-18T12:53:08.189Z,64.74
2022-09-18T12:55:54.939Z,64.53
2022-09-18T12:58:56.414Z,64.72
2022-09-18T13:01:46.931Z,64.46
2022-09-18T13:04:27.368Z,64.42
2022-09-18T13:07:04.158Z,64.57
2022-09-18T13:09:41.410Z,64.51
2022-09-18T13:12:18.233Z,64.77
2022-09-18T13:14:52.998Z,64.82
2022-09-18T13:17:30.247Z,64.49
2022-09-18T13:20:01.463Z,64.66
2022-09-18T13:22:35.467Z,64.08
2022-09-18T13:25:05.119Z,64.22
2022-09-18T13:27:32.861Z,64.10
2022-09-18T13:30:12.921Z,64.28
2022-09-18T13:32:41.393Z,63.99
2022-09-18T13:35:13.940Z,63.98
2022-09-18T13:37:42.227Z,63.96
2022-09-18T13:40:44.509Z,63.93
2022-09-18T13:43:20.369Z,63.72
2022-09-18T13:45:47.385Z,63.31
2022-09-18T13:48:18.996Z,63.57
2022-09-18T13:50:56.196Z,63.92
2022-09-18T13:53:36.098Z,64.10
2022-09-18T13:56:04.392Z,63.86
2022-09-18T13:58:30.916Z,63.88
2022-09-18T14:00:58.840Z,63.76
2022-09-18T14:03:27.792Z,63.73
2022-09-18T14:05:55.122Z,63.54
2022-09-18T14:08:22.456Z,63.11
2022-09-18T14:11:05.351Z,62.96
2022-09-18T14:13:41.854Z,63.31
2022-09-18T14:16:27.056Z,63.29
2022-09-18T14:19:04.561Z,62.85
2022-09-18T14:21:39.067Z,62.69
2022-09-18T14:24:25.386Z,63.15
2022-09-18T14:27:30.390Z,63.42
2022-09-18T14:30:02.084Z,63.38
2022-09-18T14:32:29.405Z,63.52
2022-09-18T14:35:19.394Z,63.54
2022-09-18T14:37:46.534Z,63.67
2022-09-18T14:40:24.877Z,63.55
2022-09-18T14:42:51.791Z,63.61
2022-09-18T14:45:29.914Z,63.64
2022-09-18T14:47:58.017Z,63.70
2022-09-18T14:50:36.822Z,63.23
2022-09-18T14:53:25.983Z,63.14
2022-09-18T14:56:05.821Z,63.40
2022-09-18T14:58:36.693Z,63.81
2022-09-18T15:01:07.046Z,63.84
2022-09-18T15:03:38.765Z,63.80
2022-09-18T15:06:10.080Z,63.59
2022-09-18T15:08:37.835Z,63.64
2022-09-18T15:11:05.231Z,63.59
2022-09-18T15:13:37.769Z,63.41
2022-09-18T15:16:04.942Z,63.39
2022-09-18T15:18:42.497Z,63.28
2022-09-18T15:21:24.520Z,63.48
2022-09-18T15:23:51.697Z,63.50
2022-09-18T15:26:20.237Z,63.53
2022-09-18T15:28:50.404Z,63.35
2022-09-18T15:31:19.434Z,63.33
2022-09-18T15:33:54.885Z,63.25
2022-09-18T15:36:32.003Z,63.57
2022-09-18T15:39:00.209Z,63.45
2022-09-18T15:41:41.759Z,63.60
2022-09-18T15:44:30.315Z,63.71
2022-09-18T15:46:57.103Z,63.72
2022-09-18T15:49:29.238Z,63.73
2022-09-18T15:51:58.917Z,63.95
2022-09-18T15:54:27.346Z,64.03
2022-09-18T15:56:57.078Z,63.95
2022-09-18T15:59:32.594Z,64.11
2022-09-18T16:02:07.512Z,63.95
2022-09-18T16:04:35.933Z,64.01
2022-09-18T16:07:08.152Z,64.31
2022-09-18T16:09:49.269Z,64.20
2022-09-18T16:12:31.018Z,64.48
2022-09-18T16:15:11.170Z,64.79
2022-09-18T16:18:12.350Z,64.71
2022-09-18T16:20:41.062Z,64.91
2022-09-18T16:23:30.813Z,65.14
2022-09-18T16:26:18.250Z,65.05
2022-09-18T16:28:47.625Z,65.19
2022-09-18T16:31:17.403Z,65.16
2022-09-18T16:33:57.395Z,65.37
2022-09-18T16:36:34.336Z,65.37
2022-09-18T16:39:04.008Z,65.51
2022-09-18T16:41:31.721Z,65.43
2022-09-18T16:43:58.350Z,65.28
2022-09-18T16:46:30.256Z,65.46
2022-09-18T16:48:57.459Z,65.61
2022-09-18T16:51:24.099Z,65.79
2022-09-18T16:53:52.982Z,65.32
2022-09-18T16:56:27.178Z,65.64
2022-09-18T16:58:56.039Z,65.52
2022-09-18T17:01:23.286Z,65.74
2022-09-18T17:03:51.103Z,65.51
2022-09-18T17:06:19.083Z,65.90
2022-09-18T17:08:46.907Z,66.04
2022-09-18T17:11:14.024Z,65.93
2022-09-18T17:13:48.250Z,65.96
2022-09-18T17:16:30.347Z,66.22
2022-09-18T17:19:01.579Z,66.45
2022-09-18T17:21:28.986Z,66.27
2022-09-18T17:23:56.845Z,66.66
2022-09-18T17:26:23.771Z,66.59
2022-09-18T17:28:50.378Z,66.87
2022-09-18T17:31:18.687Z,66.83
2022-09-18T17:33:46.762Z,67.08
2022-09-18T17:36:16.314Z,66.98
2022-09-18T17:38:46.233Z,67.40
2022-09-18T17:41:14.930Z,67.52
2022-09-18T17:43:42.374Z,67.64
2022-09-18T17:46:11.631Z,67.83
2022-09-18T17:48:39.149Z,67.51
2022-09-18T17:51:12.038Z,67.87
2022-09-18T17:53:40.457Z,67.74
2022-09-18T17:56:10.474Z,68.06
2022-09-18T17:58:40.622Z,68.13
2022-09-18T18:01:12.612Z,68.02
2022-09-18T18:03:39.483Z,67.75
2022-09-18T18:06:06.323Z,67.84
2022-09-18T18:08:38.878Z,67.98
2022-09-18T18:11:14.966Z,67.98
2022-09-18T18:13:47.647Z,67.89
2022-09-18T18:16:25.895Z,67.57
2022-09-18T18:18:57.938Z,67.77
2022-09-18T18:21:25.778Z,68.05
2022-09-18T18:24:00.771Z,67.94
2022-09-18T18:26:31.189Z,67.73
2022-09-18T18:28:57.774Z,67.70
2022-09-18T18:31:25.711Z,67.76
2022-09-18T18:33:54.509Z,68.06
2022-09-18T18:36:24.352Z,68.38
2022-09-18T18:38:52.334Z,68.11
2022-09-18T18:41:22.226Z,68.25
2022-09-18T18:43:57.860Z,68.54
2022-09-18T18:46:27.234Z,68.19
2022-09-18T18:49:01.871Z,68.52
2022-09-18T18:51:37.228Z,68.53
2022-09-18T18:54:04.959Z,68.42
2022-09-18T18:56:34.407Z,68.56
2022-09-18T18:59:02.980Z,68.46
2022-09-18T19:01:31.124Z,68.46
2022-09-18T19:04:00.583Z,68.78
2022-09-18T19:06:28.271Z,68.86
2022-09-18T19:09:00.470Z,68.73
2022-09-18T19:11:30.077Z,68.78
2022-09-18T19:13:57.259Z,69.08
2022-09-18T19:16:25.849Z,69.33
2022-09-18T19:18:54.363Z,69.69
2022-09-18T19:21:22.391Z,69.23
2022-09-18T19:23:52.218Z,69.80
2022-09-18T19:26:24.125Z,69.33
2022-09-18T19:29:04.769Z,69.57
2022-09-18T19:31:34.144Z,69.74
2022-09-18T19:34:00.853Z,69.84
2022-09-18T19:36:29.315Z,70.15
2022-09-18T19:38:58.424Z,70.22
2022-09-18T19:41:49.851Z,70.44
2022-09-18T19:44:41.821Z,70.22
2022-09-18T19:47:23.109Z,70.28
2022-09-18T19:49:53.359Z,70.50
2022-09-18T19:52:23.126Z,70.87
2022-09-18T19:54:52.348Z,70.69
2022-09-18T19:57:21.634Z,70.91
2022-09-18T19:59:50.135Z,70.82
2022-09-18T20:02:20.036Z,71.20
2022-09-18T20:04:46.878Z,71.22
2022-09-18T20:07:14.449Z,70.97
2022-09-18T20:09:43.312Z,70.96
2022-09-18T20:12:10.300Z,71.17
2022-09-18T20:14:36.964Z,71.30
2022-09-18T20:17:03.926Z,71.29
2022-09-18T20:19:30.617Z,71.43
2022-09-18T20:21:57.224Z,71.43
2022-09-18T20:24:23.863Z,71.61
2022-09-18T20:26:51.541Z,71.65
2022-09-18T20:29:18.263Z,71.74
2022-09-18T20:31:46.020Z,71.47
2022-09-18T20:34:13.879Z,71.66
2022-09-18T20:36:40.462Z,71.43
2022-09-18T20:39:07.252Z,71.53
2022-09-18T20:41:33.897Z,71.58
2022-09-18T20:44:01.195Z,71.59
2022-09-18T20:46:27.892Z,71.67
2022-09-18T20:48:55.269Z,71.88
2022-09-18T20:51:40.058Z,71.91
2022-09-18T20:54:08.330Z,71.72
2022-09-18T20:56:43.325Z,71.63
2022-09-18T20:59:16.661Z,71.76
2022-09-18T21:01:45.359Z,71.67
2022-09-18T21:04:17.405Z,72.08
2022-09-18T21:06:46.848Z,71.85
2022-09-18T21:09:13.635Z,72.25
2022-09-18T21:11:43.440Z,72.33
2022-09-18T21:14:12.549Z,72.27
2022-09-18T21:16:43.569Z,72.50
2022-09-18T21:19:15.889Z,72.23
2022-09-18T21:21:42.901Z,72.22
2022-09-18T21:24:10.217Z,72.30
2022-09-18T21:26:39.542Z,72.14
2022-09-18T21:29:14.931Z,72.19
2022-09-18T21:31:42.928Z,72.30
2022-09-18T21:34:14.848Z,72.67
2022-09-18T21:36:44.497Z,72.88
2022-09-18T21:39:13.014Z,72.71
2022-09-18T21:41:40.096Z,73.00
2022-09-18T21:44:12.507Z,73.17
2022-09-18T21:46:39.634Z,73.26
2022-09-18T21:49:08.044Z,73.18
2022-09-18T21:51:40.158Z,73.13
2022-09-18T21:54:14.262Z,73.31
2022-09-18T21:56:45.709Z,73.48
2022-09-18T21:59:12.858Z,73.34
2022-09-18T22:01:41.745Z,73.54
2022-09-18T22:04:12.447Z,73.66
2022-09-18T22:06:42.785Z,73.91
2022-09-18T22:09:15.050Z,74.07
2022-09-18T22:11:45.191Z,74.03
2022-09-18T22:14:18.533Z,74.08
2022-09-18T22:16:48.327Z,73.92
2022-09-18T22:19:19.950Z,74.19
2022-09-18T22:21:51.642Z,74.44
2022-09-18T22:24:21.685Z,74.68
2022-09-18T22:27:00.316Z,74.49
2022-09-18T22:29:31.914Z,74.98
2022-09-18T22:32:02.220Z,74.81
2022-09-18T22:34:33.690Z,75.17
2022-09-18T22:37:01.297Z,75.21
2022-09-18T22:39:31.729Z,75.26
2022-09-18T22:41:58.717Z,75.45
2022-09-18T22:44:28.058Z,75.65
2022-09-18T22:46:54.940Z,75.70
2022-09-18T22:49:25.730Z,76.06
2022-09-18T22:51:52.490Z,76.08
2022-09-18T22:54:24.695Z,76.08
2022-09-18T22:56:54.421Z,75.85
2022-09-18T22:59:24.806Z,76.01
2022-09-18T23:01:53.831Z,76.19
2022-09-18T23:04:23.510Z,76.19
2022-09-18T23:06:52.516Z,76.28
2022-09-18T23:09:20.045Z,76.68
2022-09-18T23:11:48.634Z,76.57
2022-09-18T23:14:18.659Z,76.61
2022-09-18T23:16:46.023Z,76.94
2022-09-18T23:19:22.641Z,77.02
2022-09-18T23:21:50.174Z,77.08
2022-09-18T23:24:20.215Z,76.89
2022-09-18T23:26:51.396Z,77.43
2022-09-18T23:29:28.769Z,77.42
2022-09-18T23:32:01.749Z,77.50
2022-09-18T23:34:43.542Z,77.48
2022-09-18T23:37:10.174Z,77.51
2022-09-18T23:39:36.828Z,77.90
2022-09-18T23:42:05.807Z,77.53
2022-09-18T23:44:33.175Z,77.57
2022-09-18T23:47:00.949Z,77.74
2022-09-18T23:49:28.184Z,77.86
2022-09-18T23:51:57.640Z,77.63
2022-09-18T23:54:30.145Z,78.01
2022-09-18T23:56:57.226Z,78.07
2022-09-18T23:59:27.635Z,77.82
